Hlavní strana
METAR-TAF:

METAR-TAF

Letiště :

Ghardája, Alžírsko

zeměpisná šířka: 32-23N, zeměpisná délka: 003-49E, výška: 450 m

Aktuální stav počasí

Zpráva byla vytvořena před 22 minutami, v 13:00 UTC
Východní vítr 16 kt, proměnlivý mezi východoseverovýchodním a východojihovýchodním
Teplota 19°C
Vlhkost vzduchu 34%
Tlak 1019 hPa
Viditelnost: 6000 m
nízko zvířený písek

METAR: DAUG 011300Z 09016KT 060V120 6000 DRSA NSC 19/03 Q1019

Čas: 14:22 (13:22 UTC)

Předpověď počasí

Zpráva byla vytvořena před 2 hodinami a 22 minutami, v 11:00 UTC
Předpověď platná od 01 v 12 UTC do 02 v 12 UTC
Východoseverovýchodní vítr 15 kt
Viditelnost: 6000 m
Pravděpodobnost 40%
od 01 v 12 UTC do 01 v 17 UTC
Východoseverovýchodní vítr 25 kt
Viditelnost: 2000 m
nízko zvířený písek
Pravděpodobnost 30% :
Dočasný
od 01 v 17 UTC do 01 v 23 UTC
Východní vítr 20 kt s nárazy do 30 kt
Viditelnost: 4000 m
nízko zvířený písek

TAF: DAUG 011100Z 0112/0212 06015KT 6000 NSC PROB40 0112/0117 06025KT 2000 DRSA PROB30 TEMPO 0117/0123 08020G30KT 4000 DRSA

Stav a předpovědi počasí z více než 4 000 letišť (zprávy METAR a TAF).

Červené a žluté tečky na mapě představují dostupné meteorologické stanice.

Když kurzor umístíte na tečku, zobrazí se název stanice.

Pak kliknutím zobrazíte stav a předpověď počasí.

Chcete-li změnit mapu, kliknutím na zelené tlačítko se znaménkem +mapu přiblížíte, kliknutím na zelené tlačítko se znaménkem – mapu oddálíte a kliknutím na zelené šipky přejdete na sousední mapy.


METAR-TAF: